createdAt,value
2019-01-29T00:00:26.368Z,7.92
2019-01-29T00:03:15.083Z,9.85
2019-01-29T00:06:04.982Z,8.28
2019-01-29T00:08:54.219Z,6.30
2019-01-29T00:11:43.195Z,6.20
2019-01-29T00:14:32.353Z,5.65
2019-01-29T00:17:20.909Z,7.62
2019-01-29T00:20:11.239Z,7.40
2019-01-29T00:22:59.981Z,7.67
2019-01-29T00:25:49.844Z,9.03
2019-01-29T00:28:38.931Z,6.20
2019-01-29T00:31:28.523Z,6.05
2019-01-29T00:34:17.852Z,6.17
2019-01-29T00:37:07.018Z,6.50
2019-01-29T00:39:55.923Z,8.05
2019-01-29T00:42:45.325Z,5.25
2019-01-29T00:45:34.080Z,7.15
2019-01-29T00:48:23.590Z,7.30
2019-01-29T00:51:12.248Z,5.87
2019-01-29T00:54:01.512Z,5.50
2019-01-29T00:56:50.658Z,6.28
2019-01-29T00:59:39.570Z,5.70
2019-01-29T01:02:28.599Z,6.97
2019-01-29T01:05:18.858Z,6.30
2019-01-29T01:08:08.776Z,5.78
2019-01-29T01:10:58.106Z,7.15
2019-01-29T01:13:47.113Z,6.10
2019-01-29T01:16:36.152Z,5.92
2019-01-29T01:19:25.544Z,5.22
2019-01-29T01:22:14.861Z,7.12
2019-01-29T01:25:11.332Z,5.40
2019-01-29T01:28:00.524Z,5.65
2019-01-29T01:30:49.904Z,5.65
2019-01-29T01:33:39.159Z,6.00
2019-01-29T01:36:28.483Z,6.78
2019-01-29T01:39:17.193Z,6.53
2019-01-29T01:42:06.136Z,5.40
2019-01-29T01:44:54.971Z,4.45
2019-01-29T01:47:43.921Z,6.12
2019-01-29T01:50:33.447Z,4.90
2019-01-29T01:53:22.575Z,5.10
2019-01-29T01:56:11.990Z,4.58
2019-01-29T01:59:00.968Z,4.30
2019-01-29T02:01:50.117Z,4.90
2019-01-29T02:04:39.481Z,5.55
2019-01-29T02:07:28.557Z,4.58
2019-01-29T02:10:21.107Z,4.50
2019-01-29T02:13:10.364Z,3.80
2019-01-29T02:15:59.208Z,4.97
2019-01-29T02:18:48.291Z,4.80
2019-01-29T02:21:36.891Z,5.30
2019-01-29T02:24:26.029Z,3.10
2019-01-29T02:27:14.932Z,4.08
2019-01-29T02:30:05.687Z,4.08
2019-01-29T02:32:55.005Z,3.83
2019-01-29T02:35:44.330Z,4.25
2019-01-29T02:38:33.556Z,5.12
2019-01-29T02:41:23.068Z,4.20
2019-01-29T02:44:12.333Z,4.33
2019-01-29T02:47:01.656Z,4.00
2019-01-29T02:49:51.079Z,4.28
2019-01-29T02:52:39.849Z,3.80
2019-01-29T02:55:29.098Z,3.42
2019-01-29T02:58:18.382Z,4.45
2019-01-29T03:01:07.854Z,4.92
2019-01-29T03:03:57.490Z,3.30
2019-01-29T03:06:46.899Z,3.92
2019-01-29T03:09:35.441Z,3.83
2019-01-29T03:12:24.521Z,3.50
2019-01-29T03:15:21.765Z,3.65
2019-01-29T03:18:10.651Z,3.15
2019-01-29T03:20:59.929Z,3.90
2019-01-29T03:23:49.269Z,4.20
2019-01-29T03:26:38.311Z,4.15
2019-01-29T03:29:27.294Z,4.30
2019-01-29T06:03:58.326Z,3.70
2019-01-29T06:06:47.890Z,2.80
2019-01-29T06:09:37.001Z,3.33
2019-01-29T06:12:25.905Z,3.92
2019-01-29T06:15:22.656Z,4.72
2019-01-29T06:18:11.718Z,3.83
2019-01-29T06:21:00.576Z,3.95
2019-01-29T06:23:49.436Z,4.20
2019-01-29T06:26:38.601Z,3.98
2019-01-29T06:29:27.562Z,5.10
2019-01-29T06:32:16.727Z,4.80
2019-01-29T06:35:11.124Z,4.95
2019-01-29T06:38:00.286Z,5.03
2019-01-29T06:40:49.422Z,4.90
2019-01-29T06:43:38.941Z,4.70
2019-01-29T06:46:28.270Z,5.03
2019-01-29T06:49:17.335Z,5.10
2019-01-29T06:52:06.229Z,5.12
2019-01-29T06:54:55.388Z,5.30
2019-01-29T06:57:44.413Z,5.05
2019-01-29T07:00:33.930Z,4.90
2019-01-29T07:03:22.768Z,5.50
2019-01-29T07:06:12.051Z,5.70
2019-01-29T07:09:01.030Z,4.83
2019-01-29T08:50:13.310Z,5.08
2019-01-29T08:53:02.170Z,4.33
2019-01-29T08:55:52.060Z,4.65
2019-01-29T08:58:41.853Z,5.45
2019-01-29T09:01:31.213Z,5.47
2019-01-29T09:04:20.162Z,5.35
2019-01-29T09:07:09.499Z,5.28
2019-01-29T09:09:58.541Z,5.62
2019-01-29T09:12:47.677Z,5.70
2019-01-29T09:15:36.839Z,6.15
2019-01-29T09:18:25.494Z,6.00
2019-01-29T09:21:14.465Z,5.10
2019-01-29T09:24:03.934Z,4.78
2019-01-29T09:26:53.034Z,4.92
2019-01-29T09:29:42.368Z,4.70
2019-01-29T09:32:31.858Z,5.03
2019-01-29T09:35:20.904Z,5.53
2019-01-29T09:38:10.069Z,5.37
2019-01-29T09:40:59.498Z,4.62
2019-01-29T09:43:48.715Z,5.45
2019-01-29T09:46:38.217Z,4.33
2019-01-29T09:49:27.867Z,4.58
2019-01-29T09:52:16.952Z,4.78
2019-01-29T09:55:13.746Z,4.60
2019-01-29T09:58:02.588Z,5.00
2019-01-29T10:00:51.399Z,5.15
2019-01-29T10:03:40.632Z,4.85
2019-01-29T10:06:29.323Z,5.33
2019-01-29T10:09:18.428Z,5.10
2019-01-29T10:12:08.161Z,5.42
2019-01-29T10:14:57.338Z,5.25
2019-01-29T10:17:46.535Z,4.90
2019-01-29T10:20:35.766Z,5.00
2019-01-29T10:23:24.471Z,5.00
2019-01-29T10:26:13.384Z,4.50
2019-01-29T10:29:02.885Z,5.10
2019-01-29T10:31:51.822Z,5.58
2019-01-29T10:34:41.011Z,5.33
2019-01-29T10:37:30.161Z,4.87
2019-01-29T10:40:27.007Z,4.90
2019-01-29T10:43:15.889Z,3.77
2019-01-29T10:46:04.724Z,4.72
2019-01-29T10:48:53.721Z,4.70
2019-01-29T10:51:43.055Z,4.70
2019-01-29T10:54:31.680Z,4.67
2019-01-29T10:57:21.394Z,4.05
2019-01-29T11:00:29.340Z,4.40
2019-01-29T11:03:18.570Z,3.45
2019-01-29T11:06:07.556Z,3.70
2019-01-29T11:08:56.350Z,4.20
2019-01-29T11:11:45.681Z,4.03
2019-01-29T11:14:34.809Z,3.87
2019-01-29T11:17:23.894Z,3.98
2019-01-29T11:20:16.423Z,4.80
2019-01-29T11:23:06.532Z,3.75
2019-01-29T11:25:55.953Z,3.72
2019-01-29T11:28:45.883Z,4.10
2019-01-29T11:31:34.388Z,5.33
2019-01-29T11:34:23.397Z,4.40
2019-01-29T11:37:12.256Z,4.45
2019-01-29T11:40:01.118Z,4.83
2019-01-29T11:42:50.443Z,4.92
2019-01-29T11:45:47.215Z,4.83
2019-01-29T11:48:36.290Z,4.97
2019-01-29T11:51:25.466Z,6.05
2019-01-29T11:54:14.789Z,6.05
2019-01-29T11:57:03.798Z,4.75
2019-01-29T11:59:53.458Z,4.90
2019-01-29T12:02:42.745Z,4.70
2019-01-29T12:05:31.985Z,4.50
2019-01-29T12:08:21.136Z,5.25
2019-01-29T12:11:09.925Z,5.28
2019-01-29T12:13:59.460Z,5.00
2019-01-29T12:16:48.851Z,5.25
2019-01-29T12:19:37.554Z,6.47
2019-01-29T12:22:26.784Z,4.90
2019-01-29T12:25:16.392Z,5.65
2019-01-29T12:28:06.345Z,5.78
2019-01-29T12:30:55.240Z,5.05
2019-01-29T12:33:44.389Z,5.60
2019-01-29T12:36:33.575Z,5.80
2019-01-29T12:39:22.692Z,7.22
2019-01-29T12:42:12.009Z,6.70
2019-01-29T12:45:01.199Z,7.08
2019-01-29T12:47:50.443Z,6.78
2019-01-29T12:50:41.384Z,9.50
2019-01-29T12:53:30.083Z,8.03
2019-01-29T12:56:21.545Z,8.60
2019-01-29T12:59:09.824Z,9.38
2019-01-29T13:01:59.143Z,9.20
2019-01-29T13:04:48.026Z,10.45
2019-01-29T13:07:37.479Z,8.65
2019-01-29T13:10:27.273Z,9.90
2019-01-29T13:13:17.147Z,8.80
2019-01-29T13:16:06.222Z,8.93
2019-01-29T13:18:55.216Z,9.00
2019-01-29T13:21:44.318Z,9.20
2019-01-29T13:24:33.914Z,9.65
2019-01-29T13:27:23.372Z,9.23
2019-01-29T13:30:28.849Z,9.83
2019-01-29T13:33:18.469Z,9.45
2019-01-29T13:36:08.276Z,9.78
2019-01-29T13:38:57.328Z,11.80
2019-01-29T13:41:46.532Z,9.48
2019-01-29T13:44:35.912Z,9.15
2019-01-29T13:47:24.866Z,9.50
2019-01-29T13:50:33.081Z,10.32
2019-01-29T13:53:22.230Z,11.03
2019-01-29T13:56:11.311Z,9.43
2019-01-29T13:59:00.253Z,10.05
2019-01-29T14:01:49.127Z,9.05
2019-01-29T14:04:37.962Z,8.83
2019-01-29T14:07:26.600Z,9.15
2019-01-29T14:10:17.176Z,9.13
2019-01-29T14:13:06.685Z,10.00
2019-01-29T14:15:56.000Z,10.15
2019-01-29T14:18:45.476Z,8.95
2019-01-29T14:21:34.596Z,9.80
2019-01-29T14:24:24.016Z,9.38
2019-01-29T14:27:13.288Z,10.13
2019-01-29T14:30:03.664Z,10.95
2019-01-29T14:32:53.357Z,10.15
2019-01-29T14:35:42.515Z,10.25
2019-01-29T14:38:50.637Z,9.15
2019-01-29T14:41:39.575Z,9.95
2019-01-29T14:44:28.438Z,9.80
2019-01-29T14:47:17.734Z,8.45
2019-01-29T14:50:11.598Z,8.90
2019-01-29T14:53:01.115Z,9.00
2019-01-29T14:55:50.212Z,8.35
2019-01-29T14:58:39.311Z,8.55
2019-01-29T15:01:28.942Z,9.40
2019-01-29T15:04:18.068Z,8.45
2019-01-29T15:07:06.982Z,7.62
2019-01-29T15:09:56.397Z,7.10
2019-01-29T15:12:45.534Z,9.00
2019-01-29T15:15:46.204Z,9.28
2019-01-29T15:18:37.295Z,6.85
2019-01-29T15:21:26.889Z,9.28
2019-01-29T15:24:16.256Z,8.18
2019-01-29T15:27:06.166Z,9.20
2019-01-29T15:29:55.917Z,7.50
2019-01-29T15:32:45.373Z,8.43
2019-01-29T15:35:34.863Z,9.03
2019-01-29T15:38:24.044Z,7.25
2019-01-29T15:41:13.527Z,7.10
2019-01-29T15:44:02.848Z,7.97
2019-01-29T15:46:51.640Z,10.05
2019-01-29T15:49:40.750Z,10.10
2019-01-29T15:52:30.091Z,7.75
2019-01-29T15:55:20.002Z,8.30
2019-01-29T15:58:09.636Z,9.90
2019-01-29T16:00:58.690Z,9.58
2019-01-29T16:03:47.981Z,10.35
2019-01-29T16:06:36.909Z,11.60
2019-01-29T16:09:25.588Z,9.90
2019-01-29T16:12:14.967Z,10.63
2019-01-29T16:15:06.368Z,10.48
2019-01-29T16:17:55.952Z,9.60
2019-01-29T16:20:45.236Z,11.50
2019-01-29T16:23:34.809Z,11.43
2019-01-29T16:26:23.794Z,12.90
2019-01-29T16:29:13.234Z,12.63
2019-01-29T16:32:02.705Z,11.50
2019-01-29T16:34:51.462Z,12.68
2019-01-29T16:37:40.350Z,12.85
2019-01-29T16:40:33.899Z,16.23
2019-01-29T16:43:23.377Z,14.90
2019-01-29T16:46:12.408Z,15.58
2019-01-29T16:49:01.395Z,13.28
2019-01-29T16:51:50.660Z,13.25
2019-01-29T16:54:39.534Z,14.40
2019-01-29T16:57:31.701Z,13.30
2019-01-29T17:00:30.154Z,15.32
2019-01-29T17:03:19.269Z,15.05
2019-01-29T17:06:08.689Z,13.20
2019-01-29T17:08:57.978Z,13.85
2019-01-29T17:11:47.345Z,13.32
2019-01-29T17:14:36.683Z,14.53
2019-01-29T17:17:26.051Z,14.68
2019-01-29T17:20:42.381Z,14.15
2019-01-29T17:23:31.440Z,13.83
2019-01-29T17:26:20.095Z,15.60
2019-01-29T17:29:09.373Z,12.95
2019-01-29T17:31:58.429Z,15.28
2019-01-29T17:34:47.484Z,15.20
2019-01-29T17:37:36.970Z,13.70
2019-01-29T17:40:26.943Z,14.80
2019-01-29T17:43:16.489Z,14.07
2019-01-29T17:46:06.006Z,13.90
2019-01-29T17:48:55.111Z,14.35
2019-01-29T17:51:44.654Z,14.47
2019-01-29T17:54:33.941Z,14.53
2019-01-29T17:57:23.698Z,13.98
2019-01-29T18:00:21.099Z,14.25
2019-01-29T18:03:11.272Z,13.40
2019-01-29T18:06:00.075Z,14.43
2019-01-29T18:08:49.811Z,14.83
2019-01-29T18:11:38.790Z,13.40
2019-01-29T18:14:27.306Z,15.45
2019-01-29T18:17:16.467Z,12.90
2019-01-29T18:20:07.878Z,14.33
2019-01-29T18:22:56.645Z,14.80
2019-01-29T18:25:45.371Z,12.85
2019-01-29T18:28:34.681Z,15.35
2019-01-29T18:31:23.424Z,12.63
2019-01-29T18:34:12.906Z,14.05
2019-01-29T18:37:02.309Z,19.02
2019-01-29T18:39:51.956Z,14.10
2019-01-29T18:42:41.473Z,17.42
2019-01-29T18:45:30.096Z,14.13
2019-01-29T18:48:19.253Z,15.38
2019-01-29T18:51:08.255Z,15.05
2019-01-29T18:53:57.281Z,14.78
2019-01-29T18:56:46.036Z,15.35
2019-01-29T18:59:34.798Z,15.20
2019-01-29T19:02:23.934Z,16.50
2019-01-29T19:05:15.336Z,14.33
2019-01-29T19:08:05.220Z,14.25
2019-01-29T19:10:54.190Z,15.75
2019-01-29T19:13:43.718Z,17.25
2019-01-29T19:16:32.864Z,15.08
2019-01-29T19:19:22.248Z,15.55
2019-01-29T19:22:11.088Z,14.63
2019-01-29T19:25:00.310Z,16.15
2019-01-29T19:27:50.041Z,17.07
2019-01-29T19:30:39.460Z,15.30
2019-01-29T19:33:28.691Z,18.02
2019-01-29T19:36:17.814Z,15.08
2019-01-29T19:39:09.432Z,17.80
2019-01-29T19:41:58.496Z,16.50
2019-01-29T19:44:48.127Z,15.10
2019-01-29T19:47:37.220Z,16.53
2019-01-29T19:50:31.707Z,16.23
2019-01-29T19:53:20.661Z,17.82
2019-01-29T19:56:09.600Z,16.55
2019-01-29T19:58:58.871Z,18.05
2019-01-29T20:01:47.994Z,16.65
2019-01-29T20:04:36.997Z,17.20
2019-01-29T20:07:25.495Z,20.82
2019-01-29T20:10:20.766Z,16.15
2019-01-29T20:13:10.024Z,18.37
2019-01-29T20:15:59.508Z,19.05
2019-01-29T20:18:49.127Z,21.05
2019-01-29T20:21:38.473Z,18.35
2019-01-29T20:24:27.516Z,17.95
2019-01-29T20:27:16.867Z,21.82
2019-01-29T20:30:19.384Z,17.30
2019-01-29T20:33:08.692Z,18.32
2019-01-29T20:35:58.012Z,19.32
2019-01-29T20:38:47.628Z,16.97
2019-01-29T20:41:36.895Z,17.07
2019-01-29T20:44:26.226Z,19.00
2019-01-29T20:47:15.851Z,17.10
2019-01-29T20:50:13.680Z,18.17
2019-01-29T20:53:02.231Z,16.73
2019-01-29T20:55:51.085Z,19.32
2019-01-29T20:58:40.880Z,17.92
2019-01-29T21:01:30.207Z,17.15
2019-01-29T21:04:20.023Z,19.10
2019-01-29T21:07:09.099Z,18.77
2019-01-29T21:09:58.562Z,18.10
2019-01-29T21:12:47.847Z,22.75
2019-01-29T21:15:38.630Z,17.40
2019-01-29T21:18:34.661Z,20.25
2019-01-29T21:21:24.036Z,17.77
2019-01-29T21:24:13.508Z,18.10
2019-01-29T21:27:02.495Z,17.67
2019-01-29T21:29:51.871Z,18.40
2019-01-29T21:32:41.154Z,17.40
2019-01-29T21:35:30.595Z,16.90
2019-01-29T21:38:19.551Z,17.73
2019-01-29T21:41:08.351Z,17.87
2019-01-29T21:43:57.297Z,18.45
2019-01-29T21:46:46.546Z,18.65
2019-01-29T21:49:35.193Z,19.65
2019-01-29T21:52:24.279Z,17.25
2019-01-29T21:55:16.193Z,17.23
2019-01-29T21:58:05.988Z,20.37
2019-01-29T22:00:55.548Z,19.00
2019-01-29T22:03:44.823Z,21.93
2019-01-29T22:06:34.117Z,15.72
2019-01-29T22:09:23.345Z,17.55
2019-01-29T22:12:12.732Z,17.35
2019-01-29T22:15:02.042Z,17.75
2019-01-29T22:17:51.336Z,18.77
2019-01-29T22:20:40.334Z,17.80
2019-01-29T22:23:29.072Z,18.80
2019-01-29T22:26:18.767Z,17.52
2019-01-29T22:29:07.819Z,17.17
2019-01-29T22:31:57.206Z,18.25
2019-01-29T22:34:46.781Z,17.95
2019-01-29T22:37:35.768Z,18.15
2019-01-29T22:40:31.262Z,16.95
2019-01-29T22:43:20.013Z,17.25
2019-01-29T22:46:09.277Z,16.85
2019-01-29T22:48:58.122Z,16.87
2019-01-29T22:51:47.316Z,17.05
2019-01-29T22:54:36.435Z,17.62
2019-01-29T22:57:25.980Z,19.35
2019-01-29T23:00:44.348Z,15.88
2019-01-29T23:03:41.016Z,18.00
2019-01-29T23:06:37.396Z,17.73
2019-01-29T23:09:26.248Z,17.42
2019-01-29T23:12:15.720Z,17.57
2019-01-29T23:15:08.080Z,19.00
2019-01-29T23:17:57.022Z,18.02
2019-01-29T23:20:46.154Z,17.27
2019-01-29T23:23:35.458Z,22.22
2019-01-29T23:26:24.932Z,18.02
2019-01-29T23:29:13.940Z,18.00
2019-01-29T23:32:03.167Z,21.25
2019-01-29T23:34:52.256Z,19.95
2019-01-29T23:37:41.708Z,18.62
2019-01-29T23:40:30.279Z,19.48
2019-01-29T23:43:19.300Z,19.37
2019-01-29T23:46:08.558Z,17.55
2019-01-29T23:48:58.065Z,22.27
2019-01-29T23:51:46.895Z,19.98
2019-01-29T23:54:36.192Z,17.48
2019-01-29T23:57:25.084Z,19.20
